Temperatur und Luftfeuchte

Temperatur und Luftfeuchte

Die letzten 100 Messwerte

Nummer Datum und Zeit Sensor ID Temperatur in Celsius gef├╝hlte Temperatur Luftfeuchte in %
94489 2023-03-30 17:21:49 Aussentemperatur 15.90 16.02 94.80
94488 2023-03-30 17:16:11 Terrasse 15.80 15.05 61.80
94487 2023-03-30 16:59:15 Bahnzimmer 18.50 17.67 48.60
94486 2023-03-30 16:53:23 Aussentemperatur 12.50 12.41 99.90
94485 2023-03-30 16:47:47 Terrasse 12.40 11.53 70.20
94484 2023-03-30 16:29:14 Bahnzimmer 18.50 17.68 48.80
94483 2023-03-30 16:25:02 Aussentemperatur 11.40 11.20 99.90
94482 2023-03-30 16:19:32 Terrasse 12.30 11.38 68.90
94481 2023-03-30 15:59:13 Bahnzimmer 18.60 17.79 48.70
94480 2023-03-30 15:57:03 Aussentemperatur 13.30 13.25 98.40
94479 2023-03-30 15:51:19 Terrasse 13.30 12.42 66.30
94478 2023-03-30 15:29:17 Aussentemperatur 17.20 17.32 89.80
94477 2023-03-30 15:29:13 Bahnzimmer 18.50 17.67 48.30
94476 2023-03-30 15:23:12 Terrasse 15.20 14.41 62.50
94475 2023-03-30 14:59:36 Aussentemperatur 13.90 13.75 92.00
94474 2023-03-30 14:59:12 Bahnzimmer 18.60 17.74 47.00
94473 2023-03-30 14:54:59 Terrasse 14.90 13.93 56.90
94472 2023-03-30 14:32:34 Aussentemperatur 25.00 25.82 86.80
94471 2023-03-30 14:29:11 Bahnzimmer 18.60 17.77 47.90
94470 2023-03-30 14:26:47 Terrasse 16.80 15.90 52.10
94469 2023-03-30 14:03:42 Aussentemperatur 19.40 19.72 89.20
94468 2023-03-30 13:59:11 Bahnzimmer 18.60 17.78 48.50
94467 2023-03-30 13:58:28 Terrasse 16.00 15.04 52.90
94466 2023-03-30 13:36:01 Aussentemperatur 20.60 21.20 95.10
94465 2023-03-30 13:29:51 Terrasse 14.30 13.29 57.70
94464 2023-03-30 13:29:10 Bahnzimmer 18.60 17.79 48.70
94463 2023-03-30 13:08:30 Aussentemperatur 20.10 20.53 90.70
94462 2023-03-30 13:01:37 Terrasse 14.50 13.74 66.50
94461 2023-03-30 12:59:09 Bahnzimmer 18.70 17.88 48.00
94460 2023-03-30 12:39:48 Aussentemperatur 15.00 15.00 93.70
94459 2023-03-30 12:33:09 Terrasse 12.10 11.29 73.80
94458 2023-03-30 12:29:09 Bahnzimmer 18.70 17.87 47.80
94457 2023-03-30 12:11:29 Aussentemperatur 12.70 12.46 93.30
94456 2023-03-30 12:04:50 Terrasse 11.70 10.90 75.50
94455 2023-03-30 11:59:08 Bahnzimmer 18.70 17.88 48.00
94454 2023-03-30 11:43:08 Aussentemperatur 11.80 11.49 94.00
94453 2023-03-30 11:36:30 Terrasse 11.50 10.70 76.50
94452 2023-03-30 11:29:07 Bahnzimmer 18.70 17.88 48.10
94451 2023-03-30 11:14:58 Aussentemperatur 12.40 12.12 92.90
94450 2023-03-30 11:08:14 Terrasse 11.40 10.59 76.20
94449 2023-03-30 10:59:06 Bahnzimmer 18.70 17.87 47.70
94448 2023-03-30 10:46:46 Aussentemperatur 12.50 12.20 91.80
94447 2023-03-30 10:39:49 Terrasse 10.60 9.74 77.60
94446 2023-03-30 10:29:06 Bahnzimmer 18.70 17.86 47.30
94445 2023-03-30 10:18:24 Aussentemperatur 10.10 9.60 93.40
94444 2023-03-30 10:11:30 Terrasse 10.20 9.30 77.50
94443 2023-03-30 09:59:05 Bahnzimmer 18.70 17.86 47.30
94442 2023-03-30 09:50:11 Aussentemperatur 10.40 9.92 92.90
94441 2023-03-30 09:43:12 Terrasse 10.10 9.20 78.00
94440 2023-03-30 09:29:04 Bahnzimmer 18.70 17.86 47.10
94439 2023-03-30 09:21:57 Aussentemperatur 9.70 9.15 92.90
94438 2023-03-30 09:14:54 Terrasse 10.00 9.10 78.20
94437 2023-03-30 08:59:04 Bahnzimmer 18.70 17.85 47.00
94436 2023-03-30 08:53:41 Aussentemperatur 9.00 8.39 93.40
94435 2023-03-30 08:29:03 Bahnzimmer 18.70 17.85 46.80
94434 2023-03-30 08:25:26 Aussentemperatur 8.90 8.29 93.70
94433 2023-03-30 08:18:24 Terrasse 9.60 8.60 76.10
94432 2023-03-30 07:59:02 Bahnzimmer 18.80 17.95 46.70
94431 2023-03-30 07:57:12 Aussentemperatur 8.50 7.86 94.10
94430 2023-03-30 07:50:06 Terrasse 9.60 8.55 73.90
94429 2023-03-30 07:29:02 Bahnzimmer 18.80 17.95 46.50
94428 2023-03-30 07:29:00 Aussentemperatur 8.60 7.98 94.20
94427 2023-03-30 07:21:49 Terrasse 9.60 8.55 73.90
94426 2023-03-30 07:00:48 Aussentemperatur 8.80 8.20 94.20
94425 2023-03-30 06:59:01 Bahnzimmer 18.90 18.06 46.50
94424 2023-03-30 06:53:31 Terrasse 9.80 8.75 73.40
94423 2023-03-30 06:32:35 Aussentemperatur 8.90 8.31 94.50
94422 2023-03-30 06:29:00 Bahnzimmer 18.80 17.94 46.30
94421 2023-03-30 06:25:14 Terrasse 9.90 8.85 73.10
94420 2023-03-30 06:04:23 Aussentemperatur 9.10 8.54 94.60
94419 2023-03-30 05:59:00 Bahnzimmer 18.50 17.62 46.40
94418 2023-03-30 05:56:59 Terrasse 10.20 9.13 71.20
94417 2023-03-30 05:36:16 Aussentemperatur 10.40 9.93 93.40
94416 2023-03-30 05:28:59 Bahnzimmer 18.30 17.40 46.70
94415 2023-03-30 05:28:41 Terrasse 10.20 8.97 65.00
94414 2023-03-30 05:08:02 Aussentemperatur 10.10 9.60 93.30
94413 2023-03-30 05:00:22 Terrasse 10.00 8.77 65.50
94412 2023-03-30 04:58:58 Bahnzimmer 17.80 16.87 47.40
94411 2023-03-30 04:39:48 Aussentemperatur 10.00 9.49 93.10
94410 2023-03-30 04:28:58 Bahnzimmer 17.80 16.86 47.00
94409 2023-03-30 04:11:33 Aussentemperatur 9.20 8.61 93.20
94408 2023-03-30 04:03:50 Terrasse 9.30 8.03 66.80
94407 2023-03-30 03:58:57 Bahnzimmer 17.80 16.87 47.20
94406 2023-03-30 03:43:18 Aussentemperatur 8.40 7.76 94.20
94405 2023-03-30 03:35:32 Terrasse 9.00 7.70 67.00
94404 2023-03-30 03:28:56 Bahnzimmer 17.80 16.87 47.20
94403 2023-03-30 03:15:05 Aussentemperatur 8.00 7.33 94.70
94402 2023-03-30 03:07:13 Terrasse 9.10 7.83 67.70
94401 2023-03-30 02:58:56 Bahnzimmer 18.00 17.09 47.20
94400 2023-03-30 02:46:53 Aussentemperatur 8.10 7.44 94.80
94399 2023-03-30 02:38:56 Terrasse 9.20 7.95 68.00
94398 2023-03-30 02:28:55 Bahnzimmer 18.00 17.09 47.20
94397 2023-03-30 02:18:40 Aussentemperatur 8.30 7.66 94.80
94396 2023-03-30 02:10:38 Terrasse 9.40 8.17 67.80
94395 2023-03-30 01:58:54 Bahnzimmer 18.10 17.20 47.20
94394 2023-03-30 01:50:29 Aussentemperatur 8.50 7.88 94.80
94393 2023-03-30 01:42:20 Terrasse 9.40 8.16 67.50
94392 2023-03-30 01:28:54 Bahnzimmer 18.20 17.31 47.20
94391 2023-03-30 01:22:16 Aussentemperatur 8.40 7.78 95.20
94390 2023-03-30 01:14:04 Terrasse 9.50 8.27 67.60